createdAt,value
2022-11-14T00:00:02.237Z,45.83
2022-11-14T00:02:48.027Z,43.25
2022-11-14T00:05:42.216Z,45.72
2022-11-14T00:08:28.313Z,43.03
2022-11-14T00:13:59.701Z,42.67
2022-11-14T00:16:46.459Z,42.10
2022-11-14T00:19:32.106Z,43.28
2022-11-14T00:22:18.073Z,53.17
2022-11-14T00:27:50.607Z,46.95
2022-11-14T00:30:36.339Z,46.67
2022-11-14T00:33:22.130Z,44.78
2022-11-14T00:38:55.273Z,49.97
2022-11-14T00:41:42.385Z,46.63
2022-11-14T00:44:28.181Z,55.00
2022-11-14T00:47:13.990Z,48.03
2022-11-14T00:49:59.616Z,49.67
2022-11-14T00:52:45.547Z,51.00
2022-11-14T00:55:31.647Z,56.25
2022-11-14T00:58:17.497Z,56.25
2022-11-14T01:01:03.217Z,52.10
2022-11-14T01:06:36.742Z,49.58
2022-11-14T01:09:22.710Z,54.08
2022-11-14T01:12:08.596Z,55.88
2022-11-14T01:14:54.540Z,53.88
2022-11-14T01:20:26.164Z,55.85
2022-11-14T01:23:14.597Z,64.57
2022-11-14T01:26:13.827Z,57.92
2022-11-14T01:28:59.850Z,61.63
2022-11-14T01:31:45.441Z,60.80
2022-11-14T01:34:31.288Z,62.20
2022-11-14T01:37:17.006Z,60.17
2022-11-14T01:40:03.096Z,57.65
2022-11-14T01:43:16.524Z,62.33
2022-11-14T01:46:32.063Z,59.40
2022-11-14T01:49:41.876Z,55.90
2022-11-14T01:52:39.521Z,55.78
2022-11-14T01:55:27.291Z,55.90
2022-11-14T01:58:14.787Z,57.15
2022-11-14T02:01:01.031Z,54.13
2022-11-14T02:03:52.345Z,50.17
2022-11-14T02:06:40.193Z,51.35
2022-11-14T02:09:28.865Z,54.53
2022-11-14T02:12:19.192Z,50.55
2022-11-14T02:15:06.070Z,50.13
2022-11-14T02:17:51.821Z,49.17
2022-11-14T02:20:43.292Z,52.72
2022-11-14T02:23:32.418Z,51.28
2022-11-14T02:26:22.717Z,50.13
2022-11-14T02:29:11.559Z,54.05
2022-11-14T02:31:57.599Z,50.47
2022-11-14T02:34:43.355Z,50.08
2022-11-14T02:37:29.621Z,48.88
2022-11-14T02:40:15.783Z,55.97
2022-11-14T02:43:01.655Z,55.83
2022-11-14T02:45:47.512Z,57.47
2022-11-14T02:48:33.348Z,56.53
2022-11-14T02:51:18.708Z,61.60
2022-11-14T02:54:04.965Z,57.22
2022-11-14T02:59:36.496Z,56.67
2022-11-14T03:02:22.384Z,52.83
2022-11-14T03:05:08.770Z,56.17
2022-11-14T03:07:56.086Z,61.85
2022-11-14T03:10:41.929Z,57.63
2022-11-14T03:13:30.227Z,59.40
2022-11-14T03:16:16.368Z,56.35
2022-11-14T03:19:02.534Z,62.88
2022-11-14T03:21:48.173Z,57.92
2022-11-14T03:24:33.970Z,61.08
2022-11-14T03:27:21.070Z,60.83
2022-11-14T03:30:08.098Z,62.75
2022-11-14T03:32:56.457Z,60.30
2022-11-14T03:35:45.383Z,63.88
2022-11-14T03:38:32.528Z,58.85
2022-11-14T03:41:18.331Z,64.10
2022-11-14T03:44:04.214Z,59.67
2022-11-14T03:46:51.430Z,65.15
2022-11-14T03:49:37.208Z,62.65
2022-11-14T03:52:22.820Z,65.85
2022-11-14T03:55:08.889Z,71.82
2022-11-14T03:57:54.534Z,65.75
2022-11-14T04:03:26.719Z,62.60
2022-11-14T04:06:12.569Z,65.57
2022-11-14T04:08:58.521Z,65.85
2022-11-14T04:14:30.435Z,75.60
2022-11-14T04:17:16.508Z,68.40
2022-11-14T04:20:02.296Z,76.47
2022-11-14T04:22:48.041Z,70.90
2022-11-14T04:25:33.949Z,74.65
2022-11-14T04:28:19.753Z,75.22
2022-11-14T04:31:06.163Z,79.35
2022-11-14T04:33:52.035Z,73.32
2022-11-14T04:39:24.146Z,78.00
2022-11-14T04:42:10.029Z,74.60
2022-11-14T04:44:55.802Z,78.13
2022-11-14T04:47:43.077Z,70.03
2022-11-14T04:50:29.027Z,78.97
2022-11-14T04:56:00.519Z,75.03
2022-11-14T04:58:46.332Z,78.25
2022-11-14T05:01:31.958Z,82.03
2022-11-14T05:04:17.477Z,81.07
2022-11-14T05:07:03.328Z,80.90
2022-11-14T05:09:49.176Z,82.38
2022-11-14T05:12:35.319Z,78.60
2022-11-14T05:15:21.567Z,83.72
2022-11-14T05:20:53.093Z,81.63
2022-11-14T05:23:39.002Z,83.28
2022-11-14T05:26:24.698Z,85.97
2022-11-14T05:29:10.523Z,78.40
2022-11-14T05:31:57.800Z,83.15
2022-11-14T05:34:43.452Z,82.47
2022-11-14T05:37:29.062Z,86.40
2022-11-14T05:40:16.954Z,83.13
2022-11-14T05:43:02.717Z,87.45
2022-11-14T05:45:48.494Z,86.70
2022-11-14T05:51:20.666Z,86.97
2022-11-14T05:54:06.471Z,87.55
2022-11-14T05:56:52.421Z,79.38
2022-11-14T06:02:24.159Z,82.95
2022-11-14T06:05:10.244Z,80.95
2022-11-14T06:07:58.734Z,81.45
2022-11-14T06:10:44.703Z,81.53
2022-11-14T06:13:31.266Z,79.95
2022-11-14T06:16:19.666Z,82.63
2022-11-14T06:19:05.599Z,81.80
2022-11-14T06:21:51.276Z,82.63
2022-11-14T06:24:36.913Z,79.43
2022-11-14T06:27:24.013Z,77.93
2022-11-14T06:30:10.815Z,82.65
2022-11-14T06:32:59.610Z,82.65
2022-11-14T06:35:45.527Z,82.65
2022-11-14T06:38:33.775Z,82.57
2022-11-14T06:41:22.608Z,86.05
2022-11-14T06:44:09.207Z,85.15
2022-11-14T06:46:56.327Z,83.75
2022-11-14T06:49:42.204Z,80.45
2022-11-14T06:52:28.212Z,82.03
2022-11-14T06:55:14.569Z,84.85
2022-11-14T07:00:46.480Z,89.00
2022-11-14T07:03:33.421Z,82.95
2022-11-14T07:06:26.262Z,77.50
2022-11-14T07:09:12.315Z,84.05
2022-11-14T07:11:57.879Z,79.90
2022-11-14T07:14:43.936Z,87.63
2022-11-14T07:17:31.524Z,78.03
2022-11-14T07:20:20.742Z,69.18
2022-11-14T07:23:06.323Z,72.10
2022-11-14T07:25:52.492Z,80.28
2022-11-14T07:28:42.939Z,72.50
2022-11-14T07:31:28.576Z,75.18
2022-11-14T07:34:14.803Z,74.18
2022-11-14T07:39:46.190Z,60.33
2022-11-14T07:42:31.783Z,62.70
2022-11-14T07:45:17.870Z,60.53
2022-11-14T07:48:05.910Z,58.80
2022-11-14T07:53:37.386Z,56.33
2022-11-14T07:56:23.207Z,55.38
2022-11-14T07:59:08.920Z,53.67
2022-11-14T08:01:54.779Z,51.25
2022-11-14T08:04:42.320Z,51.33
2022-11-14T08:07:28.442Z,49.65
2022-11-14T08:13:30.350Z,56.95
2022-11-14T08:16:13.809Z,59.25
2022-11-14T08:19:00.607Z,53.67
2022-11-14T08:21:46.376Z,55.20
2022-11-14T08:24:33.143Z,60.20
2022-11-14T08:30:05.674Z,55.05
2022-11-14T08:32:52.250Z,52.80
2022-11-14T08:35:38.168Z,47.53
2022-11-14T08:38:23.964Z,45.58
2022-11-14T08:43:55.936Z,46.03
2022-11-14T08:49:28.111Z,51.17
2022-11-14T08:52:16.923Z,52.83
2022-11-14T08:55:03.423Z,51.28
2022-11-14T08:57:50.068Z,47.40
2022-11-14T09:00:36.140Z,46.90
2022-11-14T09:03:21.945Z,47.60
2022-11-14T09:08:53.671Z,44.08
2022-11-14T09:11:39.926Z,45.13
2022-11-14T09:14:25.885Z,41.58
2022-11-14T09:17:11.909Z,46.13
2022-11-14T09:19:57.848Z,55.03
2022-11-14T09:22:43.711Z,44.30
2022-11-14T09:25:30.913Z,42.08
2022-11-14T09:28:16.859Z,39.22
2022-11-14T09:31:08.515Z,41.58
2022-11-14T09:33:54.578Z,40.67
2022-11-14T09:36:40.471Z,44.72
2022-11-14T09:39:26.231Z,40.42
2022-11-14T09:42:59.554Z,42.72
2022-11-14T09:45:52.960Z,42.33
2022-11-14T09:48:39.174Z,37.67
2022-11-14T09:51:33.488Z,34.08
2022-11-14T09:54:25.764Z,38.80
2022-11-14T09:57:20.775Z,35.50
2022-11-14T10:00:23.108Z,37.10
2022-11-14T10:03:58.747Z,33.13
2022-11-14T10:07:18.385Z,31.80
2022-11-14T10:10:27.974Z,31.88
2022-11-14T10:14:04.880Z,30.52
2022-11-14T10:17:56.635Z,27.73
2022-11-14T10:20:53.851Z,38.10
2022-11-14T10:24:06.006Z,40.10
2022-11-14T10:27:06.527Z,38.50
2022-11-14T10:30:15.491Z,27.15
2022-11-14T10:33:19.988Z,28.80
2022-11-14T10:36:35.280Z,45.45
2022-11-14T10:39:52.693Z,47.28
2022-11-14T10:42:44.795Z,35.80
2022-11-14T10:45:47.613Z,26.33
2022-11-14T10:48:44.690Z,22.85
2022-11-14T10:51:50.469Z,23.98
2022-11-14T10:55:00.051Z,23.40
2022-11-14T10:57:46.551Z,23.38
2022-11-14T11:00:32.459Z,25.05
2022-11-14T11:03:18.223Z,23.60
2022-11-14T11:06:04.037Z,23.25
2022-11-14T11:09:09.002Z,22.25
2022-11-14T11:12:02.676Z,23.88
2022-11-14T11:15:15.070Z,27.83
2022-11-14T11:18:26.030Z,22.05
2022-11-14T11:21:15.790Z,23.20
2022-11-14T11:24:01.878Z,25.77
2022-11-14T11:26:47.330Z,24.90
2022-11-14T11:29:33.230Z,22.25
2022-11-14T11:32:26.520Z,24.67
2022-11-14T11:35:17.716Z,23.90
2022-11-14T11:38:05.207Z,23.92
2022-11-14T11:44:43.835Z,22.88
2022-11-14T11:47:35.740Z,25.50
2022-11-14T11:50:24.213Z,24.60
2022-11-14T11:53:28.406Z,20.85
2022-11-14T11:56:23.423Z,23.35
2022-11-14T11:59:38.447Z,22.40
2022-11-14T12:02:27.129Z,23.80
2022-11-14T12:05:32.852Z,24.73
2022-11-14T12:09:13.866Z,21.80
2022-11-14T12:12:25.787Z,23.48
2022-11-14T12:16:11.652Z,24.08
2022-11-14T12:19:45.023Z,21.90
2022-11-14T12:22:51.775Z,20.02
2022-11-14T12:26:18.443Z,21.15
2022-11-14T12:29:27.007Z,26.77
2022-11-14T12:32:29.276Z,22.33
2022-11-14T12:35:35.589Z,18.92
2022-11-14T12:38:22.792Z,22.53
2022-11-14T12:41:10.392Z,23.88
2022-11-14T12:44:27.385Z,20.83
2022-11-14T12:47:19.490Z,21.48
2022-11-14T12:50:49.874Z,23.20
2022-11-14T12:53:38.272Z,23.60
2022-11-14T12:56:32.741Z,20.85
2022-11-14T12:59:40.158Z,22.60
2022-11-14T13:03:04.404Z,22.38
2022-11-14T13:06:13.579Z,21.33
2022-11-14T13:09:33.875Z,25.42
2022-11-14T13:12:53.205Z,23.42
2022-11-14T13:16:14.119Z,22.77
2022-11-14T13:19:40.496Z,23.58
2022-11-14T13:22:46.643Z,24.15
2022-11-14T13:25:32.789Z,22.85
2022-11-14T13:28:37.465Z,23.67
2022-11-14T13:31:43.761Z,21.58
2022-11-14T13:34:52.662Z,23.17
2022-11-14T13:38:17.483Z,20.63
2022-11-14T13:42:03.527Z,22.08
2022-11-14T13:45:23.493Z,24.73
2022-11-14T13:48:52.969Z,24.85
2022-11-14T13:51:43.873Z,25.85
2022-11-14T13:54:30.227Z,24.42
2022-11-14T13:57:50.237Z,24.73
2022-11-14T14:01:31.778Z,24.92
2022-11-14T14:04:52.101Z,28.45
2022-11-14T14:08:32.006Z,24.80
2022-11-14T14:12:17.446Z,27.65
2022-11-14T14:15:58.448Z,24.60
2022-11-14T14:19:38.305Z,22.05
2022-11-14T14:22:39.499Z,21.30
2022-11-14T14:25:45.722Z,21.45
2022-11-14T14:29:23.779Z,22.50
2022-11-14T14:32:17.272Z,23.75
2022-11-14T14:35:37.163Z,22.48
2022-11-14T14:38:29.855Z,29.63
2022-11-14T14:41:20.124Z,22.13
2022-11-14T14:44:06.723Z,23.27
2022-11-14T14:46:54.262Z,25.52
2022-11-14T14:49:40.448Z,25.63
2022-11-14T14:52:33.984Z,25.58
2022-11-14T14:55:33.900Z,32.33
2022-11-14T14:58:23.089Z,27.80
2022-11-14T15:01:27.063Z,25.35
2022-11-14T15:04:16.325Z,28.88
2022-11-14T15:07:02.930Z,26.17
2022-11-14T15:09:58.298Z,28.55
2022-11-14T15:12:44.746Z,27.70
2022-11-14T15:15:31.787Z,28.17
2022-11-14T15:18:29.802Z,28.30
2022-11-14T15:21:29.810Z,27.65
2022-11-14T15:24:23.045Z,32.38
2022-11-14T15:27:16.322Z,27.83
2022-11-14T15:30:07.571Z,33.03
2022-11-14T15:33:01.404Z,31.90
2022-11-14T15:35:47.515Z,32.05
2022-11-14T15:38:48.992Z,35.80
2022-11-14T15:41:34.758Z,34.60
2022-11-14T15:44:35.651Z,35.10
2022-11-14T15:47:30.665Z,35.33
2022-11-14T15:50:16.168Z,45.33
2022-11-14T15:53:22.680Z,36.20
2022-11-14T15:56:13.770Z,36.80
2022-11-14T15:58:59.851Z,35.72
2022-11-14T16:01:51.414Z,35.63
2022-11-14T16:04:44.462Z,36.47
2022-11-14T16:07:33.076Z,34.22
2022-11-14T16:10:26.620Z,39.38
2022-11-14T16:13:12.552Z,42.10
2022-11-14T16:15:58.269Z,38.97
2022-11-14T16:18:44.278Z,39.55
2022-11-14T16:24:23.432Z,35.53
2022-11-14T16:27:09.961Z,38.78
2022-11-14T16:32:46.903Z,36.63
2022-11-14T16:35:32.915Z,37.25
2022-11-14T16:41:09.584Z,32.42
2022-11-14T16:43:57.331Z,36.45
2022-11-14T16:46:46.493Z,38.20
2022-11-14T16:49:32.331Z,36.75
2022-11-14T16:52:19.182Z,32.92
2022-11-14T16:55:09.818Z,41.80
2022-11-14T16:57:55.554Z,44.30
2022-11-14T17:00:43.913Z,34.72
2022-11-14T17:03:33.174Z,31.05
2022-11-14T17:06:19.592Z,36.05
2022-11-14T17:09:05.401Z,33.50
2022-11-14T17:11:51.184Z,35.38
2022-11-14T17:14:36.937Z,33.63
2022-11-14T17:17:22.688Z,33.30
2022-11-14T17:22:56.856Z,28.88
2022-11-14T17:28:28.704Z,35.92
2022-11-14T17:31:15.878Z,34.50
2022-11-14T17:34:02.918Z,35.28
2022-11-14T17:36:48.989Z,28.42
2022-11-14T17:39:35.115Z,34.05
2022-11-14T17:45:07.671Z,34.90
2022-11-14T17:47:53.538Z,32.65
2022-11-14T17:50:40.450Z,33.22
2022-11-14T17:53:26.653Z,32.20
2022-11-14T17:56:21.784Z,30.30
2022-11-14T17:59:07.672Z,28.17
2022-11-14T18:01:55.865Z,36.72
2022-11-14T18:04:41.882Z,26.67
2022-11-14T18:07:30.491Z,31.08
2022-11-14T18:10:17.410Z,35.55
2022-11-14T18:13:05.074Z,30.60
2022-11-14T18:15:51.076Z,32.35
2022-11-14T18:18:37.677Z,30.65
2022-11-14T18:21:25.539Z,29.23
2022-11-14T18:24:14.586Z,30.40
2022-11-14T18:27:00.479Z,30.88
2022-11-14T18:29:46.157Z,34.55
2022-11-14T18:35:17.966Z,37.60
2022-11-14T18:38:04.023Z,34.70
2022-11-14T18:40:55.897Z,36.30
2022-11-14T18:43:44.456Z,54.88
2022-11-14T18:46:36.944Z,37.42
2022-11-14T18:49:23.794Z,33.90
2022-11-14T18:52:15.846Z,39.55
2022-11-14T18:55:05.337Z,36.67
2022-11-14T18:57:52.264Z,33.90
2022-11-14T19:00:38.107Z,36.47
2022-11-14T19:03:23.639Z,33.72
2022-11-14T19:06:12.937Z,37.33
2022-11-14T19:09:11.309Z,42.85
2022-11-14T19:12:16.277Z,34.33
2022-11-14T19:15:02.302Z,35.88
2022-11-14T19:17:48.570Z,36.25
2022-11-14T19:20:34.536Z,37.13
2022-11-14T19:26:06.215Z,36.72
2022-11-14T19:28:52.479Z,45.38
2022-11-14T19:31:38.707Z,45.83
2022-11-14T19:34:24.390Z,41.10
2022-11-14T19:37:10.472Z,40.92
2022-11-14T19:39:56.468Z,43.75
2022-11-14T19:42:42.286Z,42.22
2022-11-14T19:45:28.433Z,39.95
2022-11-14T19:48:14.167Z,44.10
2022-11-14T19:51:10.469Z,47.08
2022-11-14T19:53:59.745Z,49.17
2022-11-14T19:56:45.562Z,47.92
2022-11-14T19:59:31.508Z,53.38
2022-11-14T20:02:17.546Z,47.00
2022-11-14T20:05:03.291Z,51.55
2022-11-14T20:07:49.230Z,57.10
2022-11-14T20:10:47.648Z,62.88
2022-11-14T20:13:42.254Z,53.70
2022-11-14T20:16:34.100Z,56.85
2022-11-14T20:19:20.144Z,46.65
2022-11-14T20:22:06.617Z,47.45
2022-11-14T20:24:52.516Z,55.10
2022-11-14T20:30:25.304Z,47.33
2022-11-14T20:33:14.808Z,50.53
2022-11-14T20:36:10.584Z,43.08
2022-11-14T20:38:58.064Z,45.08
2022-11-14T20:41:43.908Z,52.10
2022-11-14T20:44:29.587Z,50.75
2022-11-14T20:47:17.339Z,40.80
2022-11-14T20:50:03.656Z,45.17
2022-11-14T20:55:35.618Z,39.22
2022-11-14T20:58:21.832Z,40.72
2022-11-14T21:01:09.033Z,44.65
2022-11-14T21:03:54.750Z,43.00
2022-11-14T21:06:40.695Z,43.53
2022-11-14T21:09:26.528Z,46.45
2022-11-14T21:12:12.260Z,40.92
2022-11-14T21:14:58.109Z,44.55
2022-11-14T21:17:43.777Z,41.22
2022-11-14T21:20:29.857Z,49.03
2022-11-14T21:23:15.758Z,40.13
2022-11-14T21:26:09.436Z,40.92
2022-11-14T21:29:05.570Z,42.85
2022-11-14T21:31:51.489Z,43.17
2022-11-14T21:34:37.168Z,43.75
2022-11-14T21:37:23.107Z,40.65
2022-11-14T21:40:11.847Z,48.70
2022-11-14T21:42:57.628Z,45.22
2022-11-14T21:45:43.485Z,46.80
2022-11-14T21:48:41.091Z,43.20
2022-11-14T21:51:29.127Z,43.35
2022-11-14T21:54:16.352Z,51.80
2022-11-14T21:59:55.379Z,44.15
2022-11-14T22:02:59.740Z,46.05
2022-11-14T22:05:46.010Z,47.63
2022-11-14T22:08:33.602Z,44.17
2022-11-14T22:14:07.518Z,43.22
2022-11-14T22:16:54.204Z,47.25
2022-11-14T22:19:40.289Z,44.95
2022-11-14T22:22:26.143Z,45.67
2022-11-14T22:25:12.211Z,47.58
2022-11-14T22:27:58.121Z,50.58
2022-11-14T22:30:44.125Z,47.95
2022-11-14T22:36:26.000Z,50.30
2022-11-14T22:39:11.954Z,50.63
2022-11-14T22:41:57.659Z,54.00
2022-11-14T22:44:43.495Z,51.40
2022-11-14T22:47:30.265Z,50.47
2022-11-14T22:50:16.307Z,52.30
2022-11-14T22:55:49.021Z,47.60
2022-11-14T22:58:41.488Z,50.95
2022-11-14T23:01:32.696Z,48.13
2022-11-14T23:04:18.422Z,47.90
2022-11-14T23:09:50.663Z,50.27
2022-11-14T23:12:36.345Z,51.38
2022-11-14T23:15:22.279Z,51.60
2022-11-14T23:18:08.051Z,46.28
2022-11-14T23:20:53.659Z,46.80
2022-11-14T23:23:39.878Z,55.65
2022-11-14T23:26:27.589Z,51.15
2022-11-14T23:29:14.350Z,46.45
2022-11-14T23:32:00.417Z,44.80
2022-11-14T23:34:46.020Z,46.90
2022-11-14T23:37:32.205Z,39.78
2022-11-14T23:40:18.073Z,44.67
2022-11-14T23:43:03.835Z,47.03
2022-11-14T23:48:36.026Z,47.28
2022-11-14T23:51:21.709Z,47.88
2022-11-14T23:54:07.508Z,44.75
2022-11-14T23:56:53.018Z,44.65
2022-11-14T23:59:38.881Z,45.47
